createdAt,value
2023-01-10T00:01:26.535Z,97484.50
2023-01-10T00:05:28.568Z,97494.56
2023-01-10T00:09:30.562Z,97496.84
2023-01-10T00:13:32.540Z,97509.41
2023-01-10T00:17:34.501Z,97509.84
2023-01-10T00:21:37.472Z,97518.53
2023-01-10T00:25:39.814Z,97524.66
2023-01-10T00:29:41.810Z,97525.53
2023-01-10T00:33:43.806Z,97537.97
2023-01-10T00:37:46.595Z,97545.91
2023-01-10T00:42:07.188Z,97561.44
2023-01-10T00:46:09.807Z,97573.34
2023-01-10T00:50:11.856Z,97583.59
2023-01-10T00:54:14.632Z,97595.56
2023-01-10T00:58:17.664Z,97605.78
2023-01-10T01:02:19.711Z,97619.63
2023-01-10T01:06:21.802Z,97624.69
2023-01-10T01:10:26.719Z,97647.19
2023-01-10T01:14:28.725Z,97653.25
2023-01-10T01:18:30.749Z,97661.94
2023-01-10T01:22:32.982Z,97675.84
2023-01-10T01:26:35.316Z,97693.19
2023-01-10T01:30:37.400Z,97696.69
2023-01-10T01:34:39.393Z,97700.69
2023-01-10T01:38:42.021Z,97702.59
2023-01-10T01:42:45.269Z,97712.53
2023-01-10T01:47:00.592Z,97718.00
2023-01-10T01:51:18.899Z,97742.25
2023-01-10T01:55:21.766Z,97747.50
2023-01-10T01:59:32.513Z,97772.69
2023-01-10T02:03:36.059Z,97776.28
2023-01-10T02:07:43.645Z,97774.56
2023-01-10T02:11:45.911Z,97778.94
2023-01-10T02:15:47.977Z,97784.13
2023-01-10T02:20:05.940Z,97782.47
2023-01-10T02:24:19.213Z,97792.78
2023-01-10T02:28:30.169Z,97798.84
2023-01-10T02:33:00.570Z,97796.25
2023-01-10T02:37:25.065Z,97806.66
2023-01-10T02:41:49.040Z,97819.63
2023-01-10T02:45:57.277Z,97814.53
2023-01-10T02:50:19.321Z,97815.56
2023-01-10T02:54:27.576Z,97819.25
2023-01-10T02:58:54.148Z,97827.38
2023-01-10T03:03:27.433Z,97833.66
2023-01-10T03:07:42.939Z,97839.59
2023-01-10T03:11:46.908Z,97847.25
2023-01-10T03:15:52.860Z,97852.47
2023-01-10T03:19:59.232Z,97855.25
2023-01-10T03:24:06.101Z,97858.19
2023-01-10T03:28:33.546Z,97868.00
2023-01-10T03:32:36.153Z,97884.66
2023-01-10T03:36:47.807Z,97890.03
2023-01-10T03:41:12.744Z,97898.03
2023-01-10T03:45:17.411Z,97901.66
2023-01-10T03:49:23.178Z,97912.13
2023-01-10T03:53:25.261Z,97932.97
2023-01-10T03:57:27.237Z,97934.63
2023-01-10T04:01:29.331Z,97941.47
2023-01-10T04:05:31.387Z,97942.22
2023-01-10T04:09:33.566Z,97950.84
2023-01-10T04:13:35.554Z,97967.28
2023-01-10T04:17:37.526Z,97971.50
2023-01-10T04:21:39.501Z,97980.03
2023-01-10T04:25:41.503Z,97974.69
2023-01-10T04:29:43.530Z,97979.75
2023-01-10T04:33:45.541Z,97989.16
2023-01-10T04:37:47.502Z,97982.13
2023-01-10T04:41:49.853Z,97987.19
2023-01-10T04:45:52.034Z,97987.88
2023-01-10T04:49:54.087Z,97995.69
2023-01-10T04:53:56.289Z,98004.31
2023-01-10T04:57:58.419Z,98009.44
2023-01-10T05:02:00.635Z,98013.09
2023-01-10T05:06:03.148Z,98039.41
2023-01-10T05:10:06.901Z,98050.84
2023-01-10T05:14:08.949Z,98050.91
2023-01-10T05:18:10.984Z,98053.34
2023-01-10T05:22:13.150Z,98060.03
2023-01-10T05:26:19.278Z,98063.31
2023-01-10T05:30:21.369Z,98059.63
2023-01-10T05:34:23.362Z,98058.66
2023-01-10T05:38:25.369Z,98062.97
2023-01-10T05:42:27.387Z,98077.78
2023-01-10T05:46:29.401Z,98084.66
2023-01-10T05:50:31.432Z,98101.94
2023-01-10T05:54:35.659Z,98085.41
2023-01-10T05:58:37.656Z,98096.56
2023-01-10T06:02:39.884Z,98094.75
2023-01-10T06:06:42.273Z,98111.13
2023-01-10T06:10:44.524Z,98111.13
2023-01-10T06:14:46.581Z,98129.22
2023-01-10T06:18:48.585Z,98148.88
2023-01-10T06:22:50.604Z,98154.94
2023-01-10T06:26:52.736Z,98157.53
2023-01-10T06:30:54.760Z,98171.28
2023-01-10T06:34:56.826Z,98172.94
2023-01-10T06:38:58.823Z,98181.59
2023-01-10T06:43:00.849Z,98180.09
2023-01-10T06:47:02.900Z,98188.03
2023-01-10T06:51:05.973Z,98195.09
2023-01-10T06:55:08.385Z,98207.47
2023-01-10T06:59:10.377Z,98212.06
2023-01-10T07:03:12.523Z,98201.78
2023-01-10T07:07:14.769Z,98183.09
2023-01-10T07:11:17.642Z,98208.41
2023-01-10T07:15:19.655Z,98220.63
2023-01-10T07:19:21.646Z,98239.69
2023-01-10T07:23:23.729Z,98244.16
2023-01-10T07:27:25.704Z,98263.28
2023-01-10T07:31:27.832Z,98266.78
2023-01-10T07:35:30.186Z,98256.38
2023-01-10T07:39:32.276Z,98259.03
2023-01-10T07:43:34.976Z,98270.28
2023-01-10T07:47:37.089Z,98289.41
2023-01-10T07:51:39.079Z,98296.47
2023-01-10T07:55:41.162Z,98299.06
2023-01-10T07:59:43.200Z,98288.59
2023-01-10T08:03:45.263Z,98305.16
2023-01-10T08:07:47.321Z,98287.03
2023-01-10T08:11:49.320Z,98296.78
2023-01-10T08:15:52.449Z,98313.31
2023-01-10T08:19:54.449Z,98321.06
2023-01-10T08:23:56.424Z,98320.19
2023-01-10T08:27:58.513Z,98339.19
2023-01-10T08:32:00.526Z,98338.00
2023-01-10T08:36:02.546Z,98333.28
2023-01-10T08:40:05.087Z,98328.50
2023-01-10T08:44:07.207Z,98330.84
2023-01-10T08:48:10.128Z,98334.91
2023-01-10T08:52:12.210Z,98339.06
2023-01-10T08:56:14.330Z,98344.88
2023-01-10T09:00:16.957Z,98348.34
2023-01-10T09:04:18.930Z,98344.88
2023-01-10T09:08:20.918Z,98346.66
2023-01-10T09:12:41.674Z,98359.69
2023-01-10T09:16:43.667Z,98365.66
2023-01-10T09:20:46.607Z,98363.84
2023-01-10T09:24:48.794Z,98367.25
2023-01-10T09:28:50.835Z,98366.28
2023-01-10T09:32:53.865Z,98372.22
2023-01-10T09:36:55.862Z,98368.59
2023-01-10T09:41:15.240Z,98371.88
2023-01-10T09:45:58.514Z,98367.13
2023-01-10T09:50:36.214Z,98390.78
2023-01-10T09:54:43.138Z,98383.91
2023-01-10T09:58:46.207Z,98395.97
2023-01-10T10:02:53.402Z,98387.13
2023-01-10T10:06:55.459Z,98397.66
2023-01-10T10:11:06.520Z,98399.53
2023-01-10T10:15:41.027Z,98398.00
2023-01-10T10:19:42.982Z,98396.25
2023-01-10T10:24:14.220Z,98394.53
2023-01-10T10:28:57.073Z,98398.00
2023-01-10T10:33:24.771Z,98412.66
2023-01-10T10:37:40.979Z,98413.53
2023-01-10T10:41:46.801Z,98409.19
2023-01-10T10:46:02.771Z,98408.34
2023-01-10T10:50:18.263Z,98402.13
2023-01-10T10:54:20.427Z,98411.41
2023-01-10T10:58:22.884Z,98395.66
2023-01-10T11:02:31.890Z,98394.41
2023-01-10T11:06:36.991Z,98394.47
2023-01-10T11:10:40.852Z,98396.22
2023-01-10T11:14:48.913Z,98402.94
2023-01-10T11:19:21.433Z,98391.16
2023-01-10T11:23:28.932Z,98385.69
2023-01-10T11:27:35.720Z,98390.66
2023-01-10T11:31:38.723Z,98391.41
2023-01-10T11:35:57.159Z,98397.63
2023-01-10T11:40:23.188Z,98390.03
2023-01-10T11:44:28.268Z,98390.34
2023-01-10T11:49:03.616Z,98386.97
2023-01-10T11:53:06.649Z,98384.06
2023-01-10T11:57:23.388Z,98382.81
2023-01-10T12:01:30.058Z,98377.50
2023-01-10T12:05:32.116Z,98371.50
2023-01-10T12:09:37.315Z,98361.28
2023-01-10T12:13:54.608Z,98367.78
2023-01-10T12:18:00.352Z,98367.75
2023-01-10T12:22:06.189Z,98357.50
2023-01-10T12:26:13.035Z,98355.88
2023-01-10T12:30:31.153Z,98354.94
2023-01-10T12:34:44.124Z,98346.78
2023-01-10T12:39:04.667Z,98359.97
2023-01-10T12:43:37.019Z,98359.91
2023-01-10T12:47:59.067Z,98356.34
2023-01-10T12:52:10.686Z,98358.22
2023-01-10T12:56:16.133Z,98356.56
2023-01-10T13:00:24.307Z,98357.63
2023-01-10T13:04:27.359Z,98360.41
2023-01-10T13:08:33.821Z,98355.44
2023-01-10T13:12:43.001Z,98359.00
2023-01-10T13:17:17.605Z,98360.69
2023-01-10T13:21:19.665Z,98360.72
2023-01-10T13:25:23.663Z,98361.13
2023-01-10T13:29:29.739Z,98360.28
2023-01-10T13:33:36.062Z,98366.41
2023-01-10T13:37:41.426Z,98360.38
2023-01-10T13:42:17.300Z,98357.72
2023-01-10T13:46:19.416Z,98352.56
2023-01-10T13:50:33.627Z,98353.44
2023-01-10T13:54:35.621Z,98354.41
2023-01-10T13:59:00.817Z,98347.44
2023-01-10T14:03:02.802Z,98347.53
2023-01-10T14:07:17.949Z,98339.22
2023-01-10T14:11:22.726Z,98338.56
2023-01-10T14:15:38.029Z,98329.22
2023-01-10T14:19:43.291Z,98333.66
2023-01-10T14:23:50.464Z,98331.06
2023-01-10T14:27:54.098Z,98331.19
2023-01-10T14:31:56.503Z,98325.34
2023-01-10T14:36:02.382Z,98324.63
2023-01-10T14:40:13.049Z,98313.28
2023-01-10T14:44:24.058Z,98302.84
2023-01-10T14:48:33.570Z,98309.00
2023-01-10T14:52:35.532Z,98303.28
2023-01-10T14:56:39.022Z,98300.00
2023-01-10T15:00:44.836Z,98295.09
2023-01-10T15:05:02.502Z,98290.84
2023-01-10T15:09:05.974Z,98289.16
2023-01-10T15:13:08.765Z,98290.94
2023-01-10T15:17:20.142Z,98294.47
2023-01-10T15:21:24.282Z,98282.50
2023-01-10T15:25:37.950Z,98276.66
2023-01-10T15:29:44.852Z,98280.34
2023-01-10T15:33:56.353Z,98265.75
2023-01-10T15:38:08.606Z,98260.88
2023-01-10T15:42:12.367Z,98253.34
2023-01-10T15:46:20.171Z,98258.66
2023-01-10T15:50:33.083Z,98247.44
2023-01-10T15:54:35.119Z,98252.75
2023-01-10T15:58:37.499Z,98248.59
2023-01-10T16:02:40.560Z,98246.09
2023-01-10T16:06:42.696Z,98240.13
2023-01-10T16:10:44.789Z,98235.00
2023-01-10T16:14:46.776Z,98231.56
2023-01-10T16:18:48.783Z,98233.28
2023-01-10T16:22:50.881Z,98231.47
2023-01-10T16:26:55.388Z,98230.59
2023-01-10T16:30:57.406Z,98236.66
2023-01-10T16:35:01.448Z,98228.78
2023-01-10T16:39:13.319Z,98215.88
2023-01-10T16:43:18.221Z,98223.78
2023-01-10T16:47:20.441Z,98219.47
2023-01-10T16:51:28.545Z,98216.88
2023-01-10T16:55:45.653Z,98208.22
2023-01-10T16:59:47.638Z,98204.69
2023-01-10T17:03:51.380Z,98190.00
2023-01-10T17:07:53.411Z,98185.59
2023-01-10T17:12:02.002Z,98181.91
2023-01-10T17:16:04.721Z,98175.78
2023-01-10T17:20:07.374Z,98167.09
2023-01-10T17:24:10.594Z,98150.59
2023-01-10T17:28:12.644Z,98143.75
2023-01-10T17:32:14.636Z,98138.44
2023-01-10T17:36:19.287Z,98142.91
2023-01-10T17:40:21.619Z,98141.25
2023-01-10T17:44:23.967Z,98130.84
2023-01-10T17:48:26.065Z,98145.53
2023-01-10T17:52:28.112Z,98143.00
2023-01-10T17:56:30.116Z,98145.59
2023-01-10T18:00:32.208Z,98130.00
2023-01-10T18:04:34.206Z,98130.84
2023-01-10T18:08:36.753Z,98130.00
2023-01-10T18:12:38.766Z,98135.22
2023-01-10T18:16:40.792Z,98138.75
2023-01-10T18:20:44.173Z,98147.41
2023-01-10T18:24:46.978Z,98142.19
2023-01-10T18:28:49.476Z,98145.72
2023-01-10T18:32:53.415Z,98132.63
2023-01-10T18:36:55.402Z,98136.91
2023-01-10T18:40:57.377Z,98130.78
2023-01-10T18:44:59.372Z,98142.97
2023-01-10T18:49:01.440Z,98143.97
2023-01-10T18:53:04.640Z,98137.97
2023-01-10T18:57:06.722Z,98140.69
2023-01-10T19:01:18.000Z,98131.34
2023-01-10T19:05:20.997Z,98134.88
2023-01-10T19:09:23.041Z,98130.59
2023-01-10T19:13:25.128Z,98135.97
2023-01-10T19:17:29.086Z,98133.41
2023-01-10T19:21:32.919Z,98136.09
2023-01-10T19:25:35.311Z,98131.75
2023-01-10T19:29:37.461Z,98119.78
2023-01-10T19:33:41.558Z,98119.03
2023-01-10T19:37:43.594Z,98128.63
2023-01-10T19:41:45.599Z,98125.09
2023-01-10T19:45:47.585Z,98121.59
2023-01-10T19:49:51.073Z,98116.34
2023-01-10T19:53:53.103Z,98101.56
2023-01-10T19:57:55.555Z,98102.38
2023-01-10T20:01:57.548Z,98075.69
2023-01-10T20:06:04.597Z,98069.88
2023-01-10T20:10:06.899Z,98042.28
2023-01-10T20:14:27.674Z,98034.81
2023-01-10T20:18:29.722Z,98038.31
2023-01-10T20:22:31.698Z,98025.31
2023-01-10T20:26:33.792Z,98014.22
2023-01-10T20:30:37.152Z,98017.78
2023-01-10T20:34:39.541Z,98023.88
2023-01-10T20:38:41.620Z,98016.06
2023-01-10T20:42:44.206Z,98011.66
2023-01-10T20:46:46.223Z,97992.50
2023-01-10T20:50:48.398Z,97995.06
2023-01-10T20:54:50.395Z,97998.53
2023-01-10T20:58:53.542Z,97995.84
2023-01-10T21:02:55.644Z,97982.00
2023-01-10T21:06:57.730Z,97982.00
2023-01-10T21:10:59.828Z,97970.78
2023-01-10T21:15:02.232Z,97974.31
2023-01-10T21:19:05.031Z,97960.56
2023-01-10T21:23:07.022Z,97951.97
2023-01-10T21:27:09.139Z,97942.56
2023-01-10T21:31:11.608Z,97945.84
2023-01-10T21:35:13.760Z,97940.16
2023-01-10T21:39:17.880Z,97933.59
2023-01-10T21:43:20.775Z,97927.75
2023-01-10T21:47:23.474Z,97927.75
2023-01-10T21:51:25.557Z,97921.91
2023-01-10T21:55:27.801Z,97919.38
2023-01-10T21:59:29.866Z,97913.50
2023-01-10T22:03:32.597Z,97910.91
2023-01-10T22:07:34.707Z,97908.34
2023-01-10T22:11:36.793Z,97896.31
2023-01-10T22:15:41.046Z,97898.13
2023-01-10T22:19:43.397Z,97887.91
2023-01-10T22:23:45.917Z,97865.50
2023-01-10T22:27:47.994Z,97881.09
2023-01-10T22:31:50.183Z,97890.53
2023-01-10T22:35:52.209Z,97881.72
2023-01-10T22:39:54.230Z,97887.72
2023-01-10T22:43:56.753Z,97858.41
2023-01-10T22:47:58.903Z,97875.66
2023-01-10T22:52:00.908Z,97864.47
2023-01-10T22:56:10.496Z,97868.78
2023-01-10T23:00:12.914Z,97870.47
2023-01-10T23:04:16.775Z,97859.25
2023-01-10T23:08:19.028Z,97878.16
2023-01-10T23:12:21.187Z,97870.34
2023-01-10T23:16:29.759Z,97869.50
2023-01-10T23:20:33.809Z,97863.50
2023-01-10T23:24:35.863Z,97838.44
2023-01-10T23:28:44.874Z,97847.88
2023-01-10T23:32:46.914Z,97846.09
2023-01-10T23:36:48.951Z,97851.28
2023-01-10T23:40:51.451Z,97842.53
2023-01-10T23:44:53.487Z,97852.84
2023-01-10T23:48:55.502Z,97843.78
2023-01-10T23:52:57.544Z,97834.88
2023-01-10T23:56:59.998Z,97809.50
